EPLB

Lublin Airport

Lublin, Poland
METAR EPLB 170200Z 24007KT 9999 OVC017 01/M01 Q1012
Observed Flight Rules
Dec-17 @ 02:00 UTC (21 minutes ago) Marginal Visual Flight Rules
Wind Visibility Clouds
240° at 7 knots 10,000+ meters
  • Overcast at 1,700' AGL
Temperatures Readings
Current 1°C / 34°F
Dewpoint -1°C / 30°F
Humidity 87%
Altimeter 29.88" Hg
Pressure 1012 hPa
Elevation 206
METAR EPLB 170200Z 24007KT 9999 OVC017 01/M01 Q1012
Observed Flight Rules
Dec-17 @ 02:00 UTC
(21 minutes ago)
MVFR
Wind Visibility
240° at 7 knots 10,000+ meters
Clouds
  • Overcast at 1,700' AGL
Temperature Dewpoint
1°C / 34°F -1°C / 30°F
Humidity Altimeter Pressure
87% 29.88" Hg 1012 hPa